Time;durP1;ratioP1;P1;durP2;ratioP2;P2;SDS_P1;SDS_P2;PMS_P1;PMS_P2;Temp;Humidity;BMP_temperature;BMP_pressure;BME280_temperature;BME280_humidity;BME280_pressure;Samples;Min_cycle;Max_cycle;Signal;HPM_P1;HPM_P2
2023/10/18 00:00:28;;;;;;;17.77;13.20;;;;;;;12.37;100.00;95907.66;4999785;28;20422;-87
2023/10/18 00:02:54;;;;;;;15.77;12.00;;;;;;;12.90;100.00;95910.28;4988842;28;20038;-87
2023/10/18 00:05:21;;;;;;;21.60;13.87;;;;;;;12.51;100.00;95911.34;4998641;28;20072;-87
2023/10/18 00:07:51;;;;;;;23.07;14.33;;;;;;;12.81;100.00;95911.34;4993749;28;20101;-87
2023/10/18 00:10:17;;;;;;;20.27;13.73;;;;;;;12.62;100.00;95910.91;5012524;28;20101;-85
2023/10/18 00:12:55;;;;;;;17.93;13.43;;;;;;;12.49;100.00;95911.50;4993477;28;20030;-86
2023/10/18 00:15:21;;;;;;;20.30;13.27;;;;;;;12.40;100.00;95907.28;4994531;28;20543;-86
2023/10/18 00:17:49;;;;;;;19.73;13.67;;;;;;;12.23;100.00;95905.78;4997894;28;20125;-86
2023/10/18 00:20:23;;;;;;;19.70;13.70;;;;;;;12.10;100.00;95909.03;4991920;28;20424;-87
2023/10/18 00:22:49;;;;;;;19.57;13.90;;;;;;;11.83;100.00;95906.88;5000060;28;20030;-87
2023/10/18 00:25:16;;;;;;;18.93;13.53;;;;;;;11.71;100.00;95893.31;4993757;28;20046;-86
2023/10/18 00:27:41;;;;;;;19.00;13.43;;;;;;;11.64;100.00;95895.81;5004891;28;20037;-86
2023/10/18 00:30:19;;;;;;;19.77;12.90;;;;;;;11.59;100.00;95887.63;4991164;28;20014;-87
2023/10/18 00:32:45;;;;;;;17.47;12.53;;;;;;;11.68;100.00;95883.13;5017085;28;20030;-86
2023/10/18 00:35:31;;;;;;;16.00;12.70;;;;;;;11.53;100.00;95881.22;5020060;28;20026;-86
2023/10/18 00:37:57;;;;;;;18.97;13.17;;;;;;;11.87;100.00;95879.22;5008674;28;20022;-86
2023/10/18 00:42:52;;;;;;;19.13;13.50;;;;;;;11.59;100.00;95874.44;5014554;28;20033;-86
2023/10/18 00:45:21;;;;;;;22.40;14.60;;;;;;;11.96;100.00;95879.00;4994547;28;20097;-86
2023/10/18 00:47:47;;;;;;;20.77;12.83;;;;;;;11.92;100.00;95863.72;5001732;28;20435;-87
2023/10/18 00:50:14;;;;;;;21.07;13.30;;;;;;;11.24;100.00;95863.47;5013468;28;20030;-87
2023/10/18 00:52:40;;;;;;;20.60;14.43;;;;;;;11.36;100.00;95861.25;5004109;28;20034;-86
2023/10/18 00:55:09;;;;;;;18.53;13.93;;;;;;;11.65;100.00;95857.13;5004069;28;20026;-86
2023/10/18 00:57:37;;;;;;;19.37;13.17;;;;;;;12.03;100.00;95850.94;4991516;28;20748;-86
2023/10/18 01:00:12;;;;;;;21.33;12.80;;;;;;;12.22;100.00;95846.97;5003701;28;20037;-87
2023/10/18 01:02:42;;;;;;;19.57;13.10;;;;;;;11.83;100.00;95852.38;4991222;28;20435;-86
2023/10/18 01:05:15;;;;;;;18.27;13.63;;;;;;;11.84;100.00;95856.69;4984182;28;20015;-86
2023/10/18 01:07:42;;;;;;;19.20;12.93;;;;;;;12.05;100.00;95847.31;5000677;28;20406;-86
2023/10/18 01:10:09;;;;;;;18.67;13.73;;;;;;;11.90;100.00;95848.06;4995793;28;20026;-86
2023/10/18 01:12:37;;;;;;;19.27;13.10;;;;;;;12.29;100.00;95838.38;4998900;28;20041;-87
2023/10/18 01:15:06;;;;;;;20.27;14.47;;;;;;;12.60;100.00;95838.22;4997996;28;20433;-87
2023/10/18 01:17:35;;;;;;;18.93;14.10;;;;;;;12.94;100.00;95837.66;5001904;28;20033;-86
2023/10/18 01:20:27;;;;;;;23.07;14.03;;;;;;;12.72;100.00;95834.94;4982672;28;20026;-86
2023/10/18 01:22:47;;;;;;;18.10;13.27;;;;;;;12.76;100.00;95838.03;5000598;28;20032;-86
2023/10/18 01:25:21;;;;;;;23.10;13.87;;;;;;;12.61;100.00;95831.91;5006930;28;20026;-87
2023/10/18 01:27:48;;;;;;;19.70;13.30;;;;;;;12.81;100.00;95830.41;4991326;28;20030;-87
2023/10/18 01:30:19;;;;;;;19.77;14.30;;;;;;;12.61;100.00;95824.00;4999875;28;20022;-86
2023/10/18 01:32:45;;;;;;;18.63;14.00;;;;;;;12.16;100.00;95826.59;4988920;28;20485;-86
2023/10/18 01:35:13;;;;;;;21.73;13.47;;;;;;;12.48;100.00;95822.03;5007313;28;20056;-87
2023/10/18 01:37:39;;;;;;;19.83;14.00;;;;;;;12.36;100.00;95813.72;4996503;28;20084;-87
2023/10/18 01:42:58;;;;;;;20.77;14.40;;;;;;;12.30;100.00;95806.53;5020361;28;20030;-86
2023/10/18 01:45:36;;;;;;;18.17;13.77;;;;;;;12.35;100.00;95806.81;4994262;28;20023;-86
2023/10/18 01:48:06;;;;;;;19.63;15.00;;;;;;;11.72;100.00;95815.91;5016205;28;20465;-87
2023/10/18 01:50:32;;;;;;;16.43;12.97;;;;;;;12.09;100.00;95801.97;4982429;28;20389;-86
2023/10/18 01:52:59;;;;;;;21.33;15.03;;;;;;;11.72;100.00;95805.38;4998299;28;20026;-86
2023/10/18 01:55:28;;;;;;;21.67;15.43;;;;;;;11.44;100.00;95798.03;4993369;28;20030;-86
2023/10/18 01:57:54;;;;;;;20.20;14.97;;;;;;;11.67;100.00;95798.03;5008873;28;20030;-86
2023/10/18 02:00:25;;;;;;;21.87;15.17;;;;;;;11.26;100.00;95790.38;4986736;28;20018;-87
2023/10/18 02:02:51;;;;;;;23.83;15.57;;;;;;;11.44;100.00;95791.94;5017745;28;20072;-87
2023/10/18 02:05:18;;;;;;;21.40;14.27;;;;;;;12.28;100.00;95784.81;4986467;28;20045;-86
2023/10/18 02:07:47;;;;;;;19.70;14.80;;;;;;;12.45;100.00;95788.09;4982668;28;20766;-87
2023/10/18 02:10:25;;;;;;;21.07;15.20;;;;;;;12.44;100.00;95778.53;5001277;28;20034;-86
2023/10/18 02:12:51;;;;;;;19.17;15.07;;;;;;;12.64;100.00;95777.00;4993791;28;20030;-87
2023/10/18 02:15:17;;;;;;;18.90;14.77;;;;;;;12.15;100.00;95789.91;4995039;28;20377;-87
2023/10/18 02:17:51;;;;;;;22.50;15.33;;;;;;;12.45;100.00;95774.91;4985775;28;20050;-86
2023/10/18 02:20:26;;;;;;;18.73;14.30;;;;;;;12.49;100.00;95777.00;5002589;28;20025;-86
2023/10/18 02:22:59;;;;;;;24.17;14.67;;;;;;;12.06;100.00;95778.59;5008368;28;20044;-87
2023/10/18 02:28:25;;;;;;;21.27;13.93;;;;;;;12.25;100.00;95767.53;4997817;28;20034;-86
2023/10/18 02:30:57;;;;;;;21.05;14.90;;;;;;;12.35;100.00;95777.00;4979357;28;20026;-87
2023/10/18 02:33:28;;;;;;;21.33;15.03;;;;;;;12.27;100.00;95772.63;4996041;28;20033;-86
2023/10/18 02:35:57;;;;;;;20.07;14.40;;;;;;;11.95;100.00;95774.59;4987590;28;20617;-86
2023/10/18 02:38:24;;;;;;;21.43;16.10;;;;;;;11.90;100.00;95784.00;4983832;28;20022;-87
2023/10/18 02:40:50;;;;;;;21.27;14.57;;;;;;;11.83;100.00;95780.44;5009062;28;20500;-86
2023/10/18 02:43:16;;;;;;;28.77;17.07;;;;;;;11.28;100.00;95779.69;4993132;28;20027;-86
2023/10/18 02:45:51;;;;;;;21.00;15.40;;;;;;;11.27;100.00;95771.00;5000899;28;20030;-86
2023/10/18 02:48:24;;;;;;;24.43;16.93;;;;;;;11.89;100.00;95777.13;4977327;28;20023;-86
2023/10/18 02:50:57;;;;;;;20.57;15.03;;;;;;;11.95;100.00;95771.94;4986106;28;20107;-86
2023/10/18 02:53:23;;;;;;;24.67;17.33;;;;;;;11.41;100.00;95769.41;4974952;28;20035;-86
2023/10/18 02:55:55;;;;;;;22.30;16.30;;;;;;;11.20;100.00;95771.84;4984476;28;20030;-86
2023/10/18 02:58:32;;;;;;;26.70;16.53;;;;;;;11.45;100.00;95769.88;5000071;28;20060;-86
2023/10/18 03:01:05;;;;;;;22.53;15.97;;;;;;;11.27;100.00;95773.63;4992107;28;20022;-87
2023/10/18 03:03:39;;;;;;;23.45;17.92;;;;;;;11.25;100.00;95777.41;4990162;28;20030;-86
2023/10/18 03:06:13;;;;;;;22.30;16.27;;;;;;;11.42;100.00;95780.75;5010029;28;20034;-86
2023/10/18 03:08:44;;;;;;;22.17;16.88;;;;;;;11.36;100.00;95779.63;5006006;28;20497;-86
2023/10/18 03:11:12;;;;;;;23.83;17.07;;;;;;;10.57;100.00;95774.47;5016216;28;20084;-86
2023/10/18 03:13:51;;;;;;;27.27;17.57;;;;;;;10.71;100.00;95761.59;4998389;28;20037;-86
2023/10/18 03:16:27;;;;;;;24.57;17.67;;;;;;;11.24;100.00;95762.63;5004004;28;20397;-87
2023/10/18 03:18:53;;;;;;;27.00;19.57;;;;;;;11.82;100.00;95758.53;5003447;28;20067;-86
2023/10/18 03:21:21;;;;;;;25.43;18.33;;;;;;;11.80;100.00;95755.25;5006235;28;20031;-86
2023/10/18 03:23:51;;;;;;;20.63;15.77;;;;;;;11.45;100.00;95762.78;4992149;28;20042;-86
2023/10/18 03:26:23;;;;;;;29.20;18.87;;;;;;;11.53;100.00;95756.63;4973529;28;20037;-86
2023/10/18 03:28:52;;;;;;;23.70;17.67;;;;;;;11.44;100.00;95755.91;5003489;28;20038;-87
2023/10/18 03:31:21;;;;;;;27.90;18.67;;;;;;;11.80;100.00;95761.38;5009315;28;20037;-86
2023/10/18 03:34:02;;;;;;;28.33;17.90;;;;;;;12.18;100.00;95757.91;4995672;28;20057;-87
2023/10/18 03:36:31;;;;;;;26.70;19.00;;;;;;;11.66;100.00;95750.78;5002440;28;20034;-87
2023/10/18 03:39:00;;;;;;;25.97;18.83;;;;;;;11.64;100.00;95750.97;4990430;28;20085;-87
2023/10/18 03:41:40;;;;;;;26.93;19.10;;;;;;;11.93;100.00;95750.22;4985914;28;20428;-86
2023/10/18 03:44:13;;;;;;;29.10;18.80;;;;;;;11.70;100.00;95739.72;4987511;28;20026;-86
2023/10/18 03:46:47;;;;;;;26.27;19.43;;;;;;;11.67;100.00;95739.22;4989203;28;20022;-86
2023/10/18 03:50:02;;;;;;;26.63;17.93;;;;;;;11.82;100.00;95737.47;4991515;28;20041;-87
2023/10/18 03:57:27;;;;;;;30.47;19.67;;;;;;;11.56;100.00;95724.69;5017148;28;20081;-86
2023/10/18 03:59:59;;;;;;;26.80;19.83;;;;;;;11.37;100.00;95717.25;5001204;28;20022;-87
2023/10/18 04:04:57;;;;;;;27.97;20.67;;;;;;;11.21;100.00;95715.59;4987976;28;20503;-86
2023/10/18 04:07:24;;;;;;;28.30;20.97;;;;;;;11.11;100.00;95709.75;4979801;28;20034;-87
2023/10/18 04:12:28;;;;;;;31.27;21.40;;;;;;;10.54;100.00;95714.34;5017101;28;20117;-86
2023/10/18 04:14:58;;;;;;;30.60;21.70;;;;;;;10.57;100.00;95708.75;4998532;28;20060;-86
2023/10/18 04:20:00;;;;;;;29.63;21.30;;;;;;;10.69;100.00;95703.09;4997576;28;20037;-86
2023/10/18 04:22:29;;;;;;;27.60;20.57;;;;;;;11.63;100.00;95703.72;4994579;28;20379;-86
2023/10/18 04:24:55;;;;;;;28.63;21.17;;;;;;;11.65;100.00;95686.75;4993516;28;20152;-86
2023/10/18 04:27:26;;;;;;;28.60;20.57;;;;;;;11.85;100.00;95681.00;5014686;28;20026;-86
2023/10/18 04:29:55;;;;;;;28.07;21.50;;;;;;;11.67;100.00;95684.75;4998190;28;20471;-86
2023/10/18 04:32:23;;;;;;;30.80;21.83;;;;;;;11.70;100.00;95676.50;5000741;28;20041;-86
2023/10/18 04:34:56;;;;;;;26.67;19.77;;;;;;;11.84;100.00;95682.81;5005673;28;20723;-87
2023/10/18 04:37:22;;;;;;;;;;;;;;;11.71;100.00;95682.59;4984039;28;20030;-86
2023/10/18 04:39:48;;;;;;;28.40;19.70;;;;;;;11.59;100.00;95681.38;5012520;28;19917;-86
2023/10/18 04:42:17;;;;;;;31.87;22.70;;;;;;;11.57;100.00;95676.31;4996072;28;20026;-86
2023/10/18 04:44:48;;;;;;;31.87;22.53;;;;;;;10.93;100.00;95673.19;5003630;28;20174;-86
2023/10/18 04:47:14;;;;;;;32.20;21.77;;;;;;;11.07;100.00;95672.44;4986284;28;20499;-86
2023/10/18 04:50:00;;;;;;;32.43;22.47;;;;;;;11.43;100.00;95669.97;5014495;28;20473;-86
2023/10/18 04:52:40;;;;;;;32.60;21.90;;;;;;;11.19;100.00;95670.19;5002322;28;20120;-86
2023/10/18 04:55:11;;;;;;;32.97;22.37;;;;;;;10.64;100.00;95689.66;5011792;28;20034;-86
2023/10/18 04:57:40;;;;;;;30.63;21.77;;;;;;;10.47;100.00;95689.72;4999498;28;20038;-86
2023/10/18 05:00:34;;;;;;;32.60;23.50;;;;;;;11.05;100.00;95685.75;5010897;28;20034;-86
2023/10/18 05:03:06;;;;;;;32.40;23.40;;;;;;;10.92;100.00;95677.63;5011321;28;20021;-87
2023/10/18 05:05:37;;;;;;;29.97;22.47;;;;;;;10.66;100.00;95677.13;4990627;28;20377;-87
2023/10/18 05:08:04;;;;;;;32.73;22.43;;;;;;;10.50;100.00;95664.91;4993985;28;20040;-86
2023/10/18 05:10:30;;;;;;;32.93;23.53;;;;;;;10.89;100.00;95664.81;5026792;28;20029;-86
2023/10/18 05:13:02;;;;;;;32.53;23.10;;;;;;;10.69;100.00;95672.34;4996563;28;20037;-87
2023/10/18 05:15:32;;;;;;;34.57;24.73;;;;;;;10.90;100.00;95677.00;5000987;28;20065;-86
2023/10/18 05:18:23;;;;;;;35.73;25.23;;;;;;;10.88;100.00;95665.00;5002415;28;20384;-86
2023/10/18 05:23:10;;;;;;;51.43;31.97;;;;;;;10.33;100.00;95645.78;5007185;28;20437;-86
2023/10/18 05:25:45;;;;;;;41.17;28.93;;;;;;;10.37;100.00;95647.88;5006009;28;20030;-87
2023/10/18 05:28:15;;;;;;;47.23;30.77;;;;;;;10.60;100.00;95652.38;4998113;28;20572;-87
2023/10/18 05:38:50;;;;;;;38.53;24.80;;;;;;;11.36;100.00;95636.66;5004558;28;20026;-87
2023/10/18 05:43:54;;;;;;;35.17;24.17;;;;;;;10.76;100.00;95630.38;4996686;28;20050;-87
2023/10/18 05:46:20;;;;;;;35.93;26.07;;;;;;;10.90;100.00;95634.06;5018183;28;20037;-87
2023/10/18 05:48:49;;;;;;;31.83;23.60;;;;;;;10.41;100.00;95642.28;5011473;28;20036;-88
2023/10/18 05:51:37;;;;;;;33.83;23.23;;;;;;;10.23;100.00;95631.97;4979717;28;20053;-88
2023/10/18 05:54:12;;;;;;;34.90;23.07;;;;;;;10.62;100.00;95630.16;5020768;28;20061;-90
2023/10/18 05:56:40;;;;;;;32.50;23.90;;;;;;;9.93;100.00;95633.59;4979033;28;20089;-87
2023/10/18 06:01:47;;;;;;;31.90;23.30;;;;;;;10.28;100.00;95638.38;5008710;28;20405;-89
2023/10/18 06:04:23;;;;;;;39.27;25.83;;;;;;;10.00;100.00;95648.50;4983527;28;20036;-89
2023/10/18 06:06:57;;;;;;;36.43;24.30;;;;;;;10.52;100.00;95649.78;5003350;28;20030;-89
2023/10/18 06:09:26;;;;;;;35.97;23.97;;;;;;;10.72;100.00;95647.50;4988059;28;20024;-89
2023/10/18 06:11:53;;;;;;;38.10;24.63;;;;;;;10.65;100.00;95643.94;5006460;28;20025;-88
2023/10/18 06:14:39;;;;;;;32.87;24.50;;;;;;;11.59;100.00;95632.16;4990835;28;20110;-88
2023/10/18 06:17:12;;;;;;;34.40;24.00;;;;;;;11.89;100.00;95632.19;5002701;28;20045;-89
2023/10/18 06:19:45;;;;;;;36.53;24.63;;;;;;;11.72;100.00;95627.06;5002842;28;20024;-90
2023/10/18 06:22:28;;;;;;;33.90;23.83;;;;;;;11.70;100.00;95625.63;5008813;28;20464;-89
2023/10/18 06:24:55;;;;;;;32.75;23.27;;;;;;;11.53;100.00;95619.69;4995190;28;20080;-87
2023/10/18 06:27:23;;;;;;;32.97;23.10;;;;;;;11.36;100.00;95629.56;5006886;28;20026;-88
2023/10/18 06:29:55;;;;;;;30.20;21.67;;;;;;;11.73;100.00;95625.25;5008406;28;20025;-87
2023/10/18 06:32:22;;;;;;;33.37;23.77;;;;;;;12.15;100.00;95627.28;5005491;28;20373;-87
2023/10/18 06:34:56;;;;;;;32.77;22.67;;;;;;;12.09;100.00;95627.19;5013833;28;20875;-87
2023/10/18 06:37:22;;;;;;;32.00;22.07;;;;;;;12.33;100.00;95628.69;4998328;28;20026;-88
2023/10/18 06:39:54;;;;;;;30.70;22.60;;;;;;;12.66;100.00;95623.81;5001133;28;20489;-88
2023/10/18 06:42:22;;;;;;;31.73;23.30;;;;;;;12.36;100.00;95629.16;4993164;28;20022;-87
2023/10/18 06:44:55;;;;;;;28.03;21.27;;;;;;;12.38;100.00;95632.44;5017718;28;20051;-87
2023/10/18 06:47:30;;;;;;;30.33;20.83;;;;;;;12.32;100.00;95635.81;4989036;28;20101;-88
2023/10/18 06:49:59;;;;;;;27.40;20.53;;;;;;;12.54;100.00;95634.03;5002316;28;20126;-89
2023/10/18 06:52:28;;;;;;;31.37;22.07;;;;;;;12.26;100.00;95633.91;4991362;28;20022;-88
2023/10/18 06:54:55;;;;;;;26.60;20.50;;;;;;;11.95;100.00;95636.75;5015206;28;20480;-88
2023/10/18 06:57:27;;;;;;;26.33;19.80;;;;;;;11.99;100.00;95622.22;4987093;28;20050;-89
2023/10/18 07:00:10;;;;;;;33.60;20.23;;;;;;;12.33;100.00;95626.88;5004996;28;20173;-89
2023/10/18 07:02:38;;;;;;;;;;;;;;;11.97;100.00;95622.41;5000774;28;20017;-90
2023/10/18 07:05:04;;;;;;;24.33;19.07;;;;;;;12.15;100.00;95615.94;5018875;28;19910;-90
2023/10/18 07:07:31;;;;;;;27.73;20.47;;;;;;;12.71;100.00;95613.53;4997000;28;20033;-91
2023/10/18 07:10:04;;;;;;;25.03;19.63;;;;;;;12.66;100.00;95602.69;4990238;28;20021;-89
2023/10/18 07:12:52;;;;;;;33.90;22.80;;;;;;;12.40;100.00;95608.50;5007449;28;20035;-90
2023/10/18 07:15:22;;;;;;;34.37;20.00;;;;;;;12.53;100.00;95595.47;5004404;28;20373;-90
2023/10/18 07:17:52;;;;;;;27.37;19.93;;;;;;;11.77;100.00;95608.94;5002801;28;20046;-89
2023/10/18 07:20:19;;;;;;;26.37;18.63;;;;;;;11.65;100.00;95596.38;4992100;28;20038;-90
2023/10/18 07:22:44;;;;;;;26.77;19.03;;;;;;;11.55;100.00;95608.00;5002317;28;20038;-89
2023/10/18 07:25:28;;;;;;;26.93;20.70;;;;;;;11.68;100.00;95598.66;4994815;28;20149;-89
2023/10/18 07:27:55;;;;;;;30.73;18.73;;;;;;;11.50;100.00;95589.31;5011724;28;20030;-90
2023/10/18 07:30:29;;;;;;;24.83;18.53;;;;;;;11.51;100.00;95593.56;5000409;28;20104;-89
2023/10/18 07:33:00;;;;;;;26.73;18.63;;;;;;;11.57;100.00;95577.03;5000298;28;20022;-88
2023/10/18 07:35:30;;;;;;;27.53;20.23;;;;;;;11.99;100.00;95580.84;4977129;28;20073;-89
2023/10/18 07:37:56;;;;;;;25.10;17.93;;;;;;;12.42;100.00;95578.31;4999563;28;20024;-89
2023/10/18 07:40:22;;;;;;;26.80;19.97;;;;;;;12.11;100.00;95573.31;5000698;28;20027;-90
2023/10/18 07:42:51;;;;;;;26.23;16.90;;;;;;;11.95;100.00;95576.97;4989413;28;20026;-89
2023/10/18 07:45:28;;;;;;;24.17;18.60;;;;;;;12.34;100.00;95575.81;5007440;28;20018;-90
2023/10/18 07:47:54;;;;;;;23.80;17.37;;;;;;;13.03;100.00;95567.31;4969482;28;20022;-90
2023/10/18 07:53:05;;;;;;;22.00;17.57;;;;;;;14.12;100.00;95562.31;5017907;28;20370;-90
2023/10/18 07:55:41;;;;;;;21.00;15.47;;;;;;;14.42;100.00;95566.47;4995282;28;20033;-90
2023/10/18 07:58:32;;;;;;;20.17;14.87;;;;;;;14.40;100.00;95577.25;4975694;28;20022;-91
2023/10/18 08:03:42;;;;;;;21.23;15.13;;;;;;;14.76;98.29;95558.44;4992034;28;20025;-91
2023/10/18 08:06:26;;;;;;;19.93;15.40;;;;;;;15.64;93.97;95552.91;4993424;28;20084;-91
2023/10/18 08:08:51;;;;;;;17.67;14.32;;;;;;;16.42;85.61;95547.53;5019367;28;20026;-90
2023/10/18 08:11:20;;;;;;;16.03;12.90;;;;;;;16.67;82.83;95544.94;4979598;28;20389;-90
2023/10/18 08:13:46;;;;;;;21.83;13.87;;;;;;;16.35;84.39;95548.59;4996323;28;20014;-90
2023/10/18 08:16:19;;;;;;;17.60;14.27;;;;;;;17.33;73.36;95542.84;5011143;28;20021;-91
2023/10/18 08:18:57;;;;;;;17.08;12.60;;;;;;;17.94;67.14;95543.88;5004147;28;20121;-90
2023/10/18 08:21:29;;;;;;;25.30;13.90;;;;;;;17.05;72.36;95536.13;5020081;28;20030;-90
2023/10/18 08:23:55;;;;;;;22.67;13.57;;;;;;;16.89;79.10;95521.53;5014199;28;20046;-90
2023/10/18 08:26:28;;;;;;;21.40;12.90;;;;;;;17.43;74.18;95524.53;5020977;28;20029;-91
2023/10/18 08:28:54;;;;;;;21.93;13.53;;;;;;;17.78;78.08;95516.88;5005116;28;20033;-90
2023/10/18 08:31:33;;;;;;;25.00;14.00;;;;;;;17.20;73.72;95527.81;4997904;28;20026;-89
2023/10/18 08:34:05;;;;;;;15.87;12.90;;;;;;;17.52;74.71;95527.75;5020374;28;20034;-90
2023/10/18 08:36:34;;;;;;;17.23;12.07;;;;;;;18.82;63.70;95527.41;5003306;28;20026;-91
2023/10/18 08:39:01;;;;;;;14.23;11.10;;;;;;;17.97;62.50;95530.16;5007087;28;20081;-90
2023/10/18 08:41:36;;;;;;;20.40;11.73;;;;;;;17.30;66.83;95528.13;4998023;28;20501;-91
2023/10/18 08:44:16;;;;;;;14.73;11.20;;;;;;;18.11;67.56;95524.47;4992478;28;20029;-90
2023/10/18 08:49:52;;;;;;;17.10;10.87;;;;;;;16.56;83.08;95508.44;4998438;28;20033;-88
2023/10/18 08:52:20;;;;;;;13.48;10.48;;;;;;;18.39;67.91;95504.44;4994000;28;20054;-88
2023/10/18 08:54:51;;;;;;;15.90;10.97;;;;;;;18.20;67.65;95503.66;4991227;28;20038;-88
2023/10/18 08:57:24;;;;;;;15.70;10.60;;;;;;;19.35;63.18;95501.75;4993595;28;20046;-89
2023/10/18 08:59:58;;;;;;;14.33;10.83;;;;;;;19.48;59.51;95494.34;5013465;28;20473;-89
2023/10/18 09:02:24;;;;;;;14.67;10.67;;;;;;;19.30;62.05;95487.25;4996784;28;20093;-86
2023/10/18 09:05:05;;;;;;;;;;;;;;;;;;;;;
2023/10/18 09:07:44;;;;;;;;;;;;;;;17.36;72.66;95494.56;5000872;28;20469;-90
2023/10/18 09:10:13;;;;;;;13.23;10.10;;;;;;;16.25;87.76;95502.09;4983041;28;20391;-91
2023/10/18 09:15:34;;;;;;;16.13;9.97;;;;;;;15.15;94.38;95500.41;5016192;28;20458;-90
2023/10/18 09:18:05;;;;;;;13.33;10.07;;;;;;;15.53;93.90;95490.75;4995092;28;20034;-89
2023/10/18 09:20:37;;;;;;;15.00;10.07;;;;;;;15.81;91.53;95492.31;4997668;28;20039;-90
2023/10/18 09:23:03;;;;;;;13.13;9.63;;;;;;;15.83;95.65;95494.75;5010046;28;20057;-91
2023/10/18 09:28:36;;;;;;;13.37;9.30;;;;;;;16.19;90.98;95472.97;5022853;28;20033;-91
2023/10/18 09:31:18;;;;;;;13.43;9.83;;;;;;;15.81;91.49;95480.91;5001470;28;20492;-90
2023/10/18 09:33:58;;;;;;;12.60;8.30;;;;;;;16.29;84.65;95481.28;4994953;28;20489;-90
2023/10/18 09:36:25;;;;;;;12.10;8.03;;;;;;;16.49;86.21;95478.50;4994418;28;20030;-90
2023/10/18 09:38:57;;;;;;;11.80;7.27;;;;;;;17.54;74.98;95475.16;5000029;28;20045;-87
2023/10/18 09:41:27;;;;;;;10.33;7.10;;;;;;;17.55;74.08;95472.28;4982804;28;20035;-88
2023/10/18 09:43:52;;;;;;;10.33;7.30;;;;;;;16.77;78.06;95462.19;5005238;28;20026;-88
2023/10/18 09:46:36;;;;;;;10.60;6.53;;;;;;;17.25;75.92;95458.09;5005776;28;20018;-88
2023/10/18 09:49:08;;;;;;;12.17;7.13;;;;;;;18.44;69.38;95450.50;5009244;28;20641;-89
2023/10/18 09:51:49;;;;;;;9.50;6.60;;;;;;;18.20;67.22;95439.78;5008997;28;20026;-89
2023/10/18 09:54:21;;;;;;;10.53;6.83;;;;;;;19.18;61.28;95435.81;4995988;28;20062;-89
2023/10/18 09:56:57;;;;;;;15.07;10.00;;;;;;;19.60;58.03;95440.16;4984010;28;20101;-89
2023/10/18 09:59:37;;;;;;;11.80;7.47;;;;;;;19.14;63.31;95434.66;5007789;28;20018;-88
2023/10/18 10:02:15;;;;;;;10.67;5.80;;;;;;;18.86;61.29;95431.88;4998583;28;20018;-89
2023/10/18 10:04:43;;;;;;;9.60;6.83;;;;;;;21.09;54.57;95421.25;4989362;28;20022;-91
2023/10/18 10:07:37;;;;;;;10.83;6.10;;;;;;;20.31;55.02;95425.56;4994241;28;20022;-91
2023/10/18 10:10:08;;;;;;;8.70;5.18;;;;;;;20.50;51.88;95423.50;5021784;28;20112;-90
2023/10/18 10:12:41;;;;;;;7.27;5.07;;;;;;;20.98;50.28;95429.34;5007528;28;20036;-89
2023/10/18 10:15:28;;;;;;;10.65;6.00;;;;;;;19.34;53.70;95434.28;5004461;28;20026;-88
2023/10/18 10:18:00;;;;;;;8.57;4.97;;;;;;;20.94;50.41;95423.69;4998022;28;20057;-87
2023/10/18 10:20:32;;;;;;;10.17;6.33;;;;;;;22.14;47.86;95421.25;5001026;28;20075;-88
2023/10/18 10:23:06;;;;;;;9.80;5.73;;;;;;;20.83;49.29;95416.59;5017200;28;20018;-87
2023/10/18 10:25:33;;;;;;;9.77;6.13;;;;;;;20.76;50.23;95413.22;4985893;28;20046;-88
2023/10/18 10:28:14;;;;;;;7.38;5.30;;;;;;;21.64;49.02;95412.41;4999487;28;20023;-87
2023/10/18 10:30:46;;;;;;;8.63;5.75;;;;;;;20.56;51.14;95411.88;4977246;28;20614;-87
2023/10/18 10:33:12;;;;;;;10.30;5.95;;;;;;;20.45;49.02;95416.19;4997421;28;20039;-88
2023/10/18 10:35:44;;;;;;;12.35;6.65;;;;;;;20.60;53.27;95415.69;5001903;28;20034;-88
2023/10/18 10:38:29;;;;;;;8.57;6.20;;;;;;;20.28;51.35;95412.69;4998650;28;20045;-88
2023/10/18 10:44:23;;;;;;;10.15;6.43;;;;;;;19.19;58.07;95404.66;5013748;28;20053;-85
2023/10/18 10:46:50;;;;;;;10.10;6.93;;;;;;;19.30;58.45;95396.63;5014299;28;20033;-89
2023/10/18 10:49:48;;;;;;;9.60;7.07;;;;;;;20.77;54.15;95390.81;4990680;28;20088;-90
2023/10/18 10:52:18;;;;;;;9.97;7.13;;;;;;;20.73;54.86;95385.16;4992172;28;20037;-89
2023/10/18 10:54:48;;;;;;;10.45;7.28;;;;;;;21.25;55.64;95381.34;5020662;28;20394;-89
2023/10/18 10:57:21;;;;;;;10.60;7.13;;;;;;;20.90;56.15;95385.97;4999747;28;21251;-89
2023/10/18 10:59:56;;;;;;;9.65;6.78;;;;;;;20.35;56.81;95389.31;4975896;28;20405;-90
2023/10/18 11:02:39;;;;;;;10.43;5.97;;;;;;;20.97;53.87;95382.31;4994998;28;20022;-89
2023/10/18 11:05:15;;;;;;;8.93;6.57;;;;;;;21.44;53.16;95373.88;4997052;28;20061;-89
2023/10/18 11:07:49;;;;;;;9.85;6.47;;;;;;;22.04;51.88;95363.06;4996207;28;20034;-89
2023/10/18 11:10:15;;;;;;;9.05;6.35;;;;;;;23.22;49.28;95359.47;4999539;28;20109;-90
2023/10/18 11:12:41;;;;;;;11.77;8.15;;;;;;;22.53;49.25;95359.50;5020501;28;20030;-89
2023/10/18 11:15:16;;;;;;;10.90;6.35;;;;;;;21.85;52.67;95364.47;4998052;28;20512;-90
2023/10/18 11:17:44;;;;;;;9.25;6.65;;;;;;;21.35;52.10;95358.25;4991942;28;20089;-88
2023/10/18 11:20:29;;;;;;;10.30;6.28;;;;;;;21.19;54.05;95362.59;4983631;28;20022;-90
2023/10/18 11:22:56;;;;;;;9.48;6.63;;;;;;;19.78;55.60;95360.00;4983020;28;20057;-90
2023/10/18 11:25:30;;;;;;;10.20;6.30;;;;;;;21.05;55.13;95349.81;4996924;28;20029;-90
2023/10/18 11:28:18;;;;;;;9.98;6.32;;;;;;;21.78;53.03;95343.25;5004947;28;20038;-90
2023/10/18 11:30:45;;;;;;;9.70;6.30;;;;;;;21.67;51.81;95341.53;4994524;28;20034;-87
2023/10/18 11:33:31;;;;;;;8.65;6.45;;;;;;;20.21;55.32;95338.06;5006752;28;20024;-88
2023/10/18 11:35:57;;;;;;;8.57;5.78;;;;;;;22.31;48.72;95325.56;4985355;28;20033;-88
2023/10/18 11:38:37;;;;;;;8.20;6.07;;;;;;;22.70;50.21;95311.94;4996472;28;20027;-87
2023/10/18 11:41:11;;;;;;;9.75;7.47;;;;;;;22.92;49.29;95302.97;4987211;28;20466;-89
2023/10/18 11:43:40;;;;;;;11.70;9.02;;;;;;;22.91;49.10;95298.66;5007459;28;20121;-88
2023/10/18 11:46:08;;;;;;;13.02;9.70;;;;;;;23.05;48.87;95299.84;4998230;28;20035;-88
2023/10/18 11:48:53;;;;;;;14.85;11.50;;;;;;;22.79;48.79;95313.06;5011416;28;20053;-89
2023/10/18 11:51:19;;;;;;;15.05;11.88;;;;;;;23.08;48.45;95311.94;4986060;28;20033;-87
2023/10/18 11:53:51;;;;;;;19.13;11.77;;;;;;;22.90;47.94;95308.56;4996364;28;20038;-88
2023/10/18 11:56:17;;;;;;;14.38;11.52;;;;;;;22.40;49.62;95299.13;5001790;28;20031;-88
2023/10/18 11:59:05;;;;;;;12.27;10.63;;;;;;;21.60;51.78;95298.91;4978587;28;20033;-88
2023/10/18 12:01:33;;;;;;;12.90;10.20;;;;;;;21.78;51.84;95300.41;5021745;28;20064;-87
2023/10/18 12:04:03;;;;;;;11.75;9.75;;;;;;;22.02;49.15;95289.41;4999855;28;20027;-88
2023/10/18 12:06:28;;;;;;;11.63;9.18;;;;;;;22.54;48.43;95286.09;4996440;28;20033;-88
2023/10/18 12:11:41;;;;;;;10.85;9.38;;;;;;;21.14;52.25;95290.31;5009869;28;20026;-88
2023/10/18 12:14:10;;;;;;;11.63;9.52;;;;;;;21.32;52.15;95289.19;5009494;28;20045;-88
2023/10/18 12:16:37;;;;;;;12.30;9.15;;;;;;;21.47;51.57;95287.78;5009545;28;20069;-88
2023/10/18 12:19:06;;;;;;;12.93;9.00;;;;;;;23.28;47.45;95275.28;5000862;28;20032;-88
2023/10/18 12:21:32;;;;;;;13.25;9.65;;;;;;;23.58;46.45;95271.06;5024190;28;20026;-87
2023/10/18 12:23:58;;;;;;;11.88;8.18;;;;;;;23.27;47.19;95259.41;4996296;28;20029;-88
2023/10/18 12:26:39;;;;;;;9.65;7.47;;;;;;;23.76;46.79;95259.06;4998043;28;20129;-88
2023/10/18 12:29:07;;;;;;;;;;;;;;;23.68;45.62;95257.72;4997794;28;20594;-88
2023/10/18 12:31:51;;;;;;;9.95;6.72;;;;;;;23.40;46.00;95252.75;5006582;28;19910;-91
2023/10/18 12:34:28;;;;;;;10.32;7.30;;;;;;;23.00;46.71;95247.00;5018582;28;20030;-89